Time;durP1;ratioP1;P1;durP2;ratioP2;P2;SDS_P1;SDS_P2;PMS_P1;PMS_P2;Temp;Humidity;BMP_temperature;BMP_pressure;BME280_temperature;BME280_humidity;BME280_pressure;Samples;Min_cycle;Max_cycle;Signal;HPM_P1;HPM_P2
2024/02/04 00:03:50;;;;;;;15.90;10.60;;;;;;;5.51;100.00;101718.31;10101484;28;20050;-69
2024/02/04 00:08:47;;;;;;;14.73;11.98;;;;;;;5.51;100.00;101713.69;10115426;28;20053;-72
2024/02/04 00:13:43;;;;;;;17.25;10.88;;;;;;;5.48;100.00;101719.66;10108011;28;20549;-70
2024/02/04 00:18:40;;;;;;;25.85;11.18;;;;;;;5.42;100.00;101712.53;10106567;28;20129;-72
2024/02/04 00:23:37;;;;;;;18.73;12.15;;;;;;;5.39;100.00;101726.63;10101756;28;20130;-70
2024/02/04 00:28:33;;;;;;;16.58;10.82;;;;;;;5.37;100.00;101736.91;10103314;28;20516;-69
2024/02/04 00:33:30;;;;;;;16.33;10.32;;;;;;;5.36;100.00;101727.97;10113818;28;20078;-69
2024/02/04 00:38:27;;;;;;;20.30;11.50;;;;;;;5.27;100.00;101718.66;10089260;28;20214;-71
2024/02/04 00:43:23;;;;;;;20.98;10.60;;;;;;;5.27;100.00;101719.47;10094398;28;20046;-69
2024/02/04 00:48:19;;;;;;;16.63;11.40;;;;;;;5.27;100.00;101697.78;10097740;28;20051;-71
2024/02/04 00:53:16;;;;;;;19.77;11.13;;;;;;;5.21;100.00;101674.41;10105194;28;20127;-71
2024/02/04 00:58:13;;;;;;;20.58;11.80;;;;;;;5.18;100.00;101683.06;10102254;28;20055;-69
2024/02/04 01:03:09;;;;;;;19.95;11.27;;;;;;;5.17;100.00;101670.56;10099070;28;20043;-69
2024/02/04 01:08:06;;;;;;;20.13;11.57;;;;;;;5.28;100.00;101675.00;10106023;28;20139;-69
2024/02/04 01:13:06;;;;;;;13.27;10.90;;;;;;;5.40;100.00;101669.38;10100532;28;20039;-70
2024/02/04 01:18:02;;;;;;;20.25;10.85;;;;;;;5.47;100.00;101671.88;10096276;28;20506;-71
2024/02/04 01:22:59;;;;;;;18.23;11.18;;;;;;;5.57;100.00;101657.56;10107553;28;20049;-71
2024/02/04 01:27:55;;;;;;;20.30;9.48;;;;;;;5.57;100.00;101658.41;10106152;28;20096;-70
2024/02/04 01:32:52;;;;;;;14.93;9.88;;;;;;;5.60;100.00;101668.72;10112680;28;21565;-70
2024/02/04 01:37:48;;;;;;;11.00;9.40;;;;;;;5.64;100.00;101678.00;10108884;28;20050;-70
2024/02/04 01:42:45;;;;;;;20.50;9.18;;;;;;;5.72;100.00;101668.53;10103316;28;20105;-71
2024/02/04 01:47:42;;;;;;;18.52;9.15;;;;;;;5.75;100.00;101661.75;10107445;28;20051;-71
2024/02/04 01:52:41;;;;;;;18.55;10.18;;;;;;;5.79;100.00;101665.59;10104526;28;20795;-70
2024/02/04 01:57:37;;;;;;;17.80;8.95;;;;;;;5.80;100.00;101661.78;10093922;28;20529;-70
2024/02/04 02:02:39;;;;;;;16.70;9.45;;;;;;;5.85;100.00;101667.28;10115494;28;20054;-71
2024/02/04 02:07:36;;;;;;;20.00;9.43;;;;;;;5.90;100.00;101665.38;10093833;28;20057;-71
2024/02/04 02:12:50;;;;;;;16.65;9.55;;;;;;;5.89;100.00;101671.06;10111774;28;20101;-71
2024/02/04 02:17:59;;;;;;;16.33;9.75;;;;;;;5.91;100.00;101663.47;10117688;28;20446;-71
2024/02/04 02:23:12;;;;;;;13.02;8.88;;;;;;;5.97;100.00;101657.03;10115764;28;20430;-72
2024/02/04 02:28:09;;;;;;;12.25;9.50;;;;;;;5.96;100.00;101658.09;10109177;28;20054;-70
2024/02/04 02:33:07;;;;;;;14.73;9.20;;;;;;;5.93;100.00;101639.59;10105030;28;20054;-72
2024/02/04 02:38:25;;;;;;;20.20;9.27;;;;;;;5.85;100.00;101642.84;10110505;28;20046;-72
2024/02/04 02:43:23;;;;;;;18.05;9.45;;;;;;;5.76;100.00;101634.38;10114834;28;20055;-72
2024/02/04 02:48:19;;;;;;;17.90;9.10;;;;;;;5.78;100.00;101636.81;10103527;28;20695;-74
2024/02/04 02:53:18;;;;;;;12.65;9.13;;;;;;;5.70;100.00;101622.66;10106815;28;20129;-72
2024/02/04 02:58:15;;;;;;;11.57;9.30;;;;;;;5.70;100.00;101621.84;10104907;28;20050;-71
2024/02/04 03:03:11;;;;;;;13.02;9.20;;;;;;;5.75;100.00;101615.63;10102227;28;20463;-71
2024/02/04 03:08:08;;;;;;;12.30;9.20;;;;;;;5.79;100.00;101616.75;10096809;28;20046;-72
2024/02/04 03:13:05;;;;;;;9.75;8.77;;;;;;;5.70;100.00;101598.22;10118836;28;20042;-72
2024/02/04 03:18:02;;;;;;;12.02;9.20;;;;;;;5.70;100.00;101592.81;10107571;28;20047;-71
2024/02/04 03:22:59;;;;;;;9.40;8.50;;;;;;;5.70;100.00;101598.22;10112292;28;20047;-72
2024/02/04 03:27:55;;;;;;;13.95;9.63;;;;;;;5.62;100.00;101606.88;10113490;28;20074;-72
2024/02/04 03:32:52;;;;;;;14.23;9.10;;;;;;;5.61;100.00;101605.25;10098925;28;20039;-72
2024/02/04 03:37:49;;;;;;;13.43;8.93;;;;;;;5.60;100.00;101587.34;10106658;28;20042;-73
2024/02/04 03:42:45;;;;;;;16.55;9.10;;;;;;;5.58;100.00;101592.22;10105439;28;20039;-73
2024/02/04 03:47:42;;;;;;;19.02;9.82;;;;;;;5.54;100.00;101585.66;10088932;28;20050;-72
2024/02/04 03:52:39;;;;;;;10.10;9.02;;;;;;;5.60;100.00;101581.91;10094156;28;20098;-74
2024/02/04 03:57:35;;;;;;;11.65;9.25;;;;;;;5.49;100.00;101563.94;10103827;28;20647;-72
2024/02/04 04:02:32;;;;;;;15.85;9.48;;;;;;;5.48;100.00;101562.31;10095570;28;20427;-73
2024/02/04 04:07:28;;;;;;;16.45;9.95;;;;;;;5.49;100.00;101561.22;10108701;28;20054;-73
2024/02/04 04:12:24;;;;;;;11.75;9.55;;;;;;;5.43;100.00;101559.56;10098511;28;20129;-72
2024/02/04 04:17:21;;;;;;;16.00;10.02;;;;;;;5.44;100.00;101556.59;10104374;28;20126;-72
2024/02/04 04:22:18;;;;;;;18.58;10.23;;;;;;;5.41;100.00;101564.47;10109986;28;20044;-73
2024/02/04 04:27:14;;;;;;;14.75;11.13;;;;;;;5.39;100.00;101569.31;10117591;28;20046;-73
2024/02/04 04:32:10;;;;;;;20.98;11.90;;;;;;;5.38;100.00;101562.25;10103799;28;20070;-73
2024/02/04 04:37:07;;;;;;;19.45;10.70;;;;;;;5.33;100.00;101562.22;10115116;28;20101;-72
2024/02/04 04:42:04;;;;;;;12.73;10.75;;;;;;;5.33;100.00;101573.06;10108360;28;20038;-72
2024/02/04 04:47:00;;;;;;;19.92;11.25;;;;;;;5.29;100.00;101564.63;10101446;28;20422;-73
2024/02/04 04:51:57;;;;;;;14.25;11.80;;;;;;;5.26;100.00;101551.59;10098906;28;20526;-71
2024/02/04 04:56:53;;;;;;;18.25;12.07;;;;;;;5.24;100.00;101524.78;10098496;28;20509;-73
2024/02/04 05:01:50;;;;;;;13.15;11.73;;;;;;;5.24;100.00;101535.63;10103265;28;20527;-71
2024/02/04 05:06:47;;;;;;;15.10;12.68;;;;;;;5.17;100.00;101516.03;10104545;28;20414;-72
2024/02/04 05:11:43;;;;;;;19.23;13.38;;;;;;;5.14;100.00;101519.28;10102094;28;20066;-71
2024/02/04 05:16:40;;;;;;;20.17;14.52;;;;;;;5.13;100.00;101525.78;10107851;28;20507;-71
2024/02/04 05:21:42;;;;;;;14.80;12.88;;;;;;;5.14;100.00;101503.00;10101666;28;20039;-71
2024/02/04 05:26:39;;;;;;;16.10;13.07;;;;;;;5.12;100.00;101515.19;10108316;28;20462;-71
2024/02/04 05:31:41;;;;;;;18.23;12.98;;;;;;;5.10;100.00;101485.63;10103682;28;20066;-69
2024/02/04 05:36:38;;;;;;;;;;;;;;;5.12;100.00;101502.44;10110108;28;20781;-72
2024/02/04 05:41:34;;;;;;;14.25;12.63;;;;;;;5.08;100.00;101482.34;10099307;28;19961;-71
2024/02/04 05:46:31;;;;;;;17.55;13.10;;;;;;;5.07;100.00;101475.31;10098208;28;20051;-72
2024/02/04 05:51:28;;;;;;;14.65;12.88;;;;;;;5.07;100.00;101499.72;10095144;28;20039;-69
2024/02/04 05:56:24;;;;;;;15.32;12.75;;;;;;;5.06;100.00;101466.38;10089961;28;20046;-72
2024/02/04 06:01:21;;;;;;;18.83;12.70;;;;;;;5.11;100.00;101486.47;10107641;28;20094;-73
2024/02/04 06:06:21;;;;;;;13.55;12.18;;;;;;;5.18;100.00;101487.84;10100081;28;20047;-72
2024/02/04 06:11:17;;;;;;;17.58;11.77;;;;;;;5.18;100.00;101487.84;10108478;28;20052;-73
2024/02/04 06:16:14;;;;;;;16.70;12.65;;;;;;;5.20;100.00;101490.31;10102844;28;20058;-72
2024/02/04 06:21:10;;;;;;;15.23;12.00;;;;;;;5.18;100.00;101485.13;10104600;28;20110;-74
2024/02/04 06:26:07;;;;;;;16.20;11.82;;;;;;;5.17;100.00;101483.50;10106729;28;20038;-74
2024/02/04 06:31:03;;;;;;;14.93;12.15;;;;;;;5.19;100.00;101478.63;10114159;28;20083;-73
2024/02/04 06:36:00;;;;;;;17.38;12.23;;;;;;;5.19;100.00;101467.78;10103016;28;20130;-72
2024/02/04 06:40:57;;;;;;;19.50;13.45;;;;;;;5.15;100.00;101458.56;10110016;28;20070;-72
2024/02/04 06:45:53;;;;;;;13.73;11.00;;;;;;;5.16;100.00;101462.88;10111123;28;20462;-72
2024/02/04 06:50:50;;;;;;;19.20;11.27;;;;;;;5.18;100.00;101459.94;10107336;28;20526;-73
2024/02/04 06:55:46;;;;;;;15.45;10.30;;;;;;;5.18;100.00;101446.38;10110368;28;20049;-73
2024/02/04 07:00:43;;;;;;;21.25;10.85;;;;;;;5.19;100.00;101462.34;10108381;28;20058;-71
2024/02/04 07:05:40;;;;;;;14.57;10.63;;;;;;;5.16;100.00;101449.34;10105623;28;20726;-72
2024/02/04 07:10:37;;;;;;;18.00;10.40;;;;;;;5.17;100.00;101445.53;10105248;28;20090;-71
2024/02/04 07:15:33;;;;;;;22.30;12.63;;;;;;;5.21;100.00;101435.81;10112111;28;20060;-71
2024/02/04 07:20:30;;;;;;;13.75;10.35;;;;;;;5.23;100.00;101458.03;10110038;28;20465;-71
2024/02/04 07:25:26;;;;;;;17.40;11.10;;;;;;;5.25;100.00;101466.75;10106601;28;20046;-72
2024/02/04 07:30:23;;;;;;;17.63;11.00;;;;;;;5.27;100.00;101453.75;10109817;28;20097;-71
2024/02/04 07:35:19;;;;;;;13.68;10.07;;;;;;;5.33;100.00;101434.78;10106081;28;20054;-71
2024/02/04 07:40:16;;;;;;;15.10;9.88;;;;;;;5.35;100.00;101443.47;10110823;28;20485;-71
2024/02/04 07:45:13;;;;;;;15.18;9.88;;;;;;;5.36;100.00;101435.06;10112558;28;20043;-71
2024/02/04 07:50:09;;;;;;;17.80;11.18;;;;;;;5.38;100.00;101434.78;10105224;28;20503;-71
2024/02/04 07:55:06;;;;;;;15.93;10.10;;;;;;;5.45;100.00;101427.22;10104217;28;20051;-71
2024/02/04 08:00:05;;;;;;;19.35;10.30;;;;;;;5.48;100.00;101460.06;10105187;28;20042;-71
2024/02/04 08:05:04;;;;;;;19.40;9.68;;;;;;;5.49;100.00;101442.69;10105480;28;20046;-70
2024/02/04 08:10:00;;;;;;;19.80;10.73;;;;;;;5.54;100.00;101431.03;10108045;28;20043;-70
2024/02/04 08:14:57;;;;;;;13.70;10.30;;;;;;;5.58;100.00;101426.72;10120117;28;20050;-70
2024/02/04 08:19:53;;;;;;;12.90;10.50;;;;;;;5.64;100.00;101436.53;10107914;28;20312;-71
2024/02/04 08:24:50;;;;;;;14.52;9.13;;;;;;;5.68;100.00;101474.78;10112255;28;20105;-71
2024/02/04 08:29:47;;;;;;;20.70;9.57;;;;;;;5.68;100.00;101443.03;10100104;28;20050;-71
2024/02/04 08:34:43;;;;;;;16.13;10.35;;;;;;;5.69;100.00;101433.81;10104290;28;20058;-71
2024/02/04 08:39:40;;;;;;;14.27;10.05;;;;;;;5.80;100.00;101445.53;10107729;28;20550;-72
2024/02/04 08:44:36;;;;;;;9.23;8.50;;;;;;;5.86;100.00;101443.63;10101617;28;20043;-71
2024/02/04 08:49:36;;;;;;;16.55;10.65;;;;;;;5.94;100.00;101443.13;10100504;28;20113;-71
2024/02/04 08:54:33;;;;;;;16.90;9.85;;;;;;;6.00;100.00;101444.75;10099817;28;20043;-71
2024/02/04 08:59:29;;;;;;;10.40;9.05;;;;;;;6.03;100.00;101438.78;10095280;28;20145;-71
2024/02/04 09:04:26;;;;;;;16.05;9.52;;;;;;;6.06;100.00;101405.69;10110582;28;20054;-72
2024/02/04 09:09:22;;;;;;;13.63;9.77;;;;;;;6.11;100.00;101419.25;10104318;28;20515;-70
2024/02/04 09:14:19;;;;;;;21.25;9.90;;;;;;;6.17;100.00;101421.97;10104854;28;20094;-72
2024/02/04 09:19:16;;;;;;;16.67;9.55;;;;;;;6.11;100.00;101424.69;10097435;28;20053;-70
2024/02/04 09:24:12;;;;;;;13.00;9.10;;;;;;;6.14;100.00;101455.09;10093901;28;20046;-70
2024/02/04 09:29:09;;;;;;;18.27;9.40;;;;;;;6.15;100.00;101432.28;10104632;28;20043;-69
2024/02/04 09:34:05;;;;;;;22.30;9.73;;;;;;;6.23;100.00;101450.75;10100583;28;20046;-70
2024/02/04 09:39:03;;;;;;;22.23;9.95;;;;;;;6.24;100.00;101444.22;10104286;28;20050;-70
2024/02/04 09:44:03;;;;;;;21.35;10.07;;;;;;;6.26;100.00;101433.91;10096901;28;20050;-72
2024/02/04 09:49:02;;;;;;;17.33;8.82;;;;;;;6.40;100.00;101436.91;10096640;28;20469;-73
2024/02/04 09:54:06;;;;;;;23.50;11.55;;;;;;;6.44;100.00;101433.38;10105786;28;20039;-73
2024/02/04 09:59:03;;;;;;;13.93;9.32;;;;;;;6.39;100.00;101436.09;10106074;28;20089;-73
2024/02/04 10:04:01;;;;;;;19.83;9.52;;;;;;;6.39;100.00;101425.25;10110234;28;20047;-72
2024/02/04 10:08:59;;;;;;;18.33;10.85;;;;;;;6.44;100.00;101430.66;10111135;28;20179;-72
2024/02/04 10:13:56;;;;;;;16.60;10.30;;;;;;;6.44;100.00;101417.06;10104015;28;20098;-72
2024/02/04 10:18:56;;;;;;;15.63;10.15;;;;;;;6.48;100.00;101401.88;10100685;28;20047;-73
2024/02/04 10:23:53;;;;;;;22.67;10.82;;;;;;;6.52;100.00;101405.66;10100577;28;20391;-73
2024/02/04 10:28:49;;;;;;;22.73;9.65;;;;;;;6.51;100.00;101398.59;10107665;28;20087;-74
2024/02/04 10:33:45;;;;;;;11.40;8.65;;;;;;;6.57;100.00;101398.59;10105437;28;20102;-74
2024/02/04 10:38:42;;;;;;;22.63;9.95;;;;;;;6.68;100.00;101394.75;10109971;28;20039;-74
2024/02/04 10:43:42;;;;;;;13.38;9.55;;;;;;;6.70;100.00;101411.63;10104308;28;20410;-73
2024/02/04 10:48:42;;;;;;;13.70;8.77;;;;;;;6.73;100.00;101398.31;10093892;28;20042;-72
2024/02/04 10:53:42;;;;;;;16.05;9.93;;;;;;;6.76;100.00;101379.81;10104289;28;20047;-72
2024/02/04 10:58:39;;;;;;;16.63;9.15;;;;;;;6.76;100.00;101379.81;10105260;28;20074;-72
2024/02/04 11:03:37;;;;;;;20.17;9.48;;;;;;;6.74;100.00;101361.06;10105492;28;20046;-72
2024/02/04 11:08:35;;;;;;;16.27;9.48;;;;;;;6.81;100.00;101383.31;10098137;28;20077;-71
2024/02/04 11:13:33;;;;;;;18.75;9.25;;;;;;;6.85;100.00;101370.81;10096886;28;20078;-71
2024/02/04 11:19:01;;;;;;;17.08;8.60;;;;;;;6.97;100.00;101386.00;10102126;28;20137;-72
2024/02/04 11:24:17;;;;;;;19.40;8.77;;;;;;;6.98;100.00;101349.56;10094724;28;20069;-72
2024/02/04 11:29:14;;;;;;;19.38;7.97;;;;;;;7.05;100.00;101383.50;10107490;28;20058;-73
2024/02/04 11:34:11;;;;;;;13.05;8.48;;;;;;;7.04;100.00;101367.50;10108654;28;20089;-72
2024/02/04 11:39:14;;;;;;;15.32;8.75;;;;;;;7.18;100.00;101354.09;10112057;28;20055;-72
2024/02/04 11:44:11;;;;;;;24.80;9.15;;;;;;;7.23;100.00;101354.88;10109943;28;20061;-73
2024/02/04 11:49:16;;;;;;;16.30;8.63;;;;;;;7.31;100.00;101339.88;10093111;28;20508;-72
2024/02/04 11:54:15;;;;;;;14.90;8.80;;;;;;;7.25;100.00;101360.84;10088283;28;20535;-74
2024/02/04 11:59:15;;;;;;;15.02;8.57;;;;;;;7.36;100.00;101357.00;10099690;28;20082;-72
2024/02/04 12:04:13;;;;;;;14.93;7.93;;;;;;;7.37;100.00;101355.09;10091784;28;20047;-75
2024/02/04 12:09:10;;;;;;;13.15;8.20;;;;;;;7.50;100.00;101350.94;10093535;28;20451;-76
2024/02/04 12:14:07;;;;;;;21.83;8.63;;;;;;;7.53;100.00;101356.63;10098248;28;20462;-75
2024/02/04 12:19:04;;;;;;;22.20;9.98;;;;;;;7.58;100.00;101334.00;10092108;28;20569;-74
2024/02/04 12:24:01;;;;;;;12.18;7.85;;;;;;;7.56;100.00;101338.91;10096120;28;20562;-77
2024/02/04 12:28:58;;;;;;;17.60;8.35;;;;;;;7.61;100.00;101340.78;10095391;28;20066;-75
2024/02/04 12:34:00;;;;;;;16.13;8.40;;;;;;;7.59;100.00;101332.94;10106082;28;20145;-74
2024/02/04 12:38:58;;;;;;;;;;;;;;;7.54;100.00;101322.06;10100035;28;20042;-75
2024/02/04 12:43:57;;;;;;;14.27;8.30;;;;;;;7.53;100.00;101323.16;10107439;28;19944;-74
2024/02/04 12:48:55;;;;;;;13.20;7.70;;;;;;;7.54;100.00;101351.97;10105418;28;20069;-74
2024/02/04 12:54:09;;;;;;;14.60;8.40;;;;;;;7.61;100.00;101352.47;10108036;28;20039;-74
2024/02/04 12:59:06;;;;;;;16.83;9.02;;;;;;;7.58;100.00;101342.16;10098370;28;20050;-74
2024/02/04 13:04:03;;;;;;;13.30;8.10;;;;;;;7.53;100.00;101328.59;10091129;28;20039;-75
2024/02/04 13:09:00;;;;;;;13.02;8.73;;;;;;;7.55;100.00;101331.84;10106516;28;20049;-74
2024/02/04 13:13:56;;;;;;;14.20;9.13;;;;;;;7.57;100.00;101327.75;10095494;28;20061;-74
2024/02/04 13:18:53;;;;;;;18.55;8.77;;;;;;;7.60;100.00;101323.66;10111187;28;20422;-74
2024/02/04 13:23:51;;;;;;;18.13;9.05;;;;;;;7.65;100.00;101315.44;10094101;28;20043;-74
2024/02/04 13:28:47;;;;;;;14.70;9.15;;;;;;;7.66;100.00;101317.09;10107417;28;20593;-79
2024/02/04 13:33:44;;;;;;;14.93;8.40;;;;;;;7.64;100.00;101313.84;10099256;28;20113;-74
2024/02/04 13:38:40;;;;;;;19.83;9.23;;;;;;;7.63;100.00;101312.19;10109386;28;20097;-74
2024/02/04 13:43:38;;;;;;;14.60;9.32;;;;;;;7.64;100.00;101313.03;10109383;28;20046;-75
2024/02/04 13:48:35;;;;;;;11.35;8.50;;;;;;;7.67;100.00;101305.09;10118823;28;20528;-74
2024/02/04 13:53:34;;;;;;;11.50;9.30;;;;;;;7.59;100.00;101311.16;10110827;28;20102;-75
2024/02/04 13:58:30;;;;;;;16.42;10.63;;;;;;;7.61;100.00;101316.28;10108248;28;20577;-76
2024/02/04 14:03:27;;;;;;;14.32;9.43;;;;;;;7.55;100.00;101293.75;10104615;28;20043;-74
2024/02/04 14:08:24;;;;;;;19.98;9.18;;;;;;;7.52;100.00;101294.31;10100494;28;20043;-74
2024/02/04 14:13:22;;;;;;;14.80;9.25;;;;;;;7.59;100.00;101295.63;10095695;28;20391;-75
2024/02/04 14:18:18;;;;;;;15.10;9.57;;;;;;;7.55;100.00;101293.75;10102307;28;20495;-75
2024/02/04 14:23:15;;;;;;;19.10;9.57;;;;;;;7.50;100.00;101280.19;10096765;28;20044;-76
2024/02/04 14:28:12;;;;;;;22.40;9.40;;;;;;;7.49;100.00;101278.56;10106776;28;20051;-75
2024/02/04 14:33:09;;;;;;;16.30;9.10;;;;;;;7.46;100.00;101279.13;10099894;28;20066;-74
2024/02/04 14:38:05;;;;;;;12.23;9.55;;;;;;;7.45;100.00;101283.78;10099929;28;20172;-75
2024/02/04 14:43:02;;;;;;;21.63;10.45;;;;;;;7.41;100.00;101287.34;10098821;28;20053;-75
2024/02/04 14:47:59;;;;;;;20.17;10.88;;;;;;;7.44;100.00;101292.19;10108597;28;20046;-75
2024/02/04 14:52:55;;;;;;;10.93;9.80;;;;;;;7.41;100.00;101287.34;10094240;28;20043;-75
2024/02/04 14:57:52;;;;;;;11.40;10.15;;;;;;;7.36;100.00;101318.09;10115366;28;20455;-75
2024/02/04 15:02:49;;;;;;;17.73;10.90;;;;;;;7.35;100.00;101303.66;10112790;28;20049;-75
2024/02/04 15:07:45;;;;;;;17.23;11.00;;;;;;;7.35;100.00;101292.78;10095275;28;20051;-77
2024/02/04 15:12:45;;;;;;;15.40;11.13;;;;;;;7.35;100.00;101279.19;10110967;28;20062;-76
2024/02/04 15:17:42;;;;;;;20.33;11.93;;;;;;;7.29;100.00;101285.78;10116865;28;20067;-74
2024/02/04 15:22:41;;;;;;;14.85;11.52;;;;;;;7.19;100.00;101274.94;10091275;28;20051;-75
2024/02/04 15:27:38;;;;;;;18.73;12.18;;;;;;;7.18;100.00;101278.75;10111405;28;20046;-75
2024/02/04 15:32:35;;;;;;;20.25;12.00;;;;;;;7.10;100.00;101299.22;10102916;28;20051;-77
2024/02/04 15:37:32;;;;;;;13.73;12.38;;;;;;;7.06;100.00;101281.03;10107187;28;20118;-75
2024/02/04 15:42:28;;;;;;;23.42;14.88;;;;;;;6.88;100.00;101263.44;10095272;28;20058;-77
2024/02/04 15:47:26;;;;;;;18.10;14.07;;;;;;;6.80;100.00;101267.56;10104850;28;20070;-78
2024/02/04 15:52:23;;;;;;;21.27;13.63;;;;;;;6.75;100.00;101259.41;10110435;28;20445;-75
2024/02/04 15:57:22;;;;;;;14.85;12.68;;;;;;;6.64;100.00;101268.72;10094173;28;20428;-75
2024/02/04 16:02:19;;;;;;;19.13;13.40;;;;;;;6.49;100.00;101262.22;10098725;28;20054;-76
2024/02/04 16:07:18;;;;;;;17.33;13.15;;;;;;;6.43;100.00;101233.47;10104078;28;20566;-75
2024/02/04 16:12:19;;;;;;;14.25;12.95;;;;;;;6.35;100.00;101234.03;10093152;28;20078;-73
2024/02/04 16:17:18;;;;;;;15.50;12.57;;;;;;;6.28;100.00;101211.78;10104186;28;20055;-75
2024/02/04 16:22:16;;;;;;;17.10;12.15;;;;;;;6.28;100.00;101195.47;10082399;28;20051;-76
2024/02/04 16:27:13;;;;;;;16.25;13.55;;;;;;;6.29;100.00;101175.41;10098690;28;20047;-73
2024/02/04 16:32:14;;;;;;;22.40;12.70;;;;;;;6.20;100.00;101172.44;10095070;28;20404;-74
2024/02/04 16:37:11;;;;;;;17.80;12.52;;;;;;;6.18;100.00;101168.38;10106160;28;20070;-75
2024/02/04 16:42:08;;;;;;;12.77;11.60;;;;;;;6.15;100.00;101147.19;10103440;28;20514;-74
2024/02/04 16:47:05;;;;;;;25.27;11.68;;;;;;;6.09;100.00;101149.94;10094715;28;20051;-74
2024/02/04 16:52:02;;;;;;;17.50;11.20;;;;;;;6.06;100.00;101150.50;10105717;28;20042;-75
2024/02/04 16:56:58;;;;;;;20.67;11.23;;;;;;;6.07;100.00;101133.09;10095106;28;20043;-76
2024/02/04 17:01:55;;;;;;;14.40;10.82;;;;;;;6.03;100.00;101104.88;10094692;28;20162;-74
2024/02/04 17:06:51;;;;;;;16.63;10.75;;;;;;;6.03;100.00;101102.16;10108033;28;20073;-75
2024/02/04 17:11:48;;;;;;;11.80;10.68;;;;;;;6.03;100.00;101094.00;10100534;28;20047;-75
2024/02/04 17:16:58;;;;;;;22.30;11.63;;;;;;;6.03;100.00;101077.72;10085440;28;20080;-76
2024/02/04 17:22:04;;;;;;;15.43;11.77;;;;;;;6.06;100.00;101077.19;10088578;28;20429;-79
2024/02/04 17:27:06;;;;;;;20.92;12.07;;;;;;;6.05;100.00;101075.56;10098832;28;20051;-76
2024/02/04 17:32:04;;;;;;;16.40;11.32;;;;;;;6.07;100.00;101057.09;10090351;28;20057;-76
2024/02/04 17:37:00;;;;;;;16.52;10.75;;;;;;;6.05;100.00;101044.88;10095153;28;20047;-76
2024/02/04 17:41:57;;;;;;;14.93;11.45;;;;;;;6.10;100.00;101048.41;10090947;28;20049;-75
2024/02/04 17:46:53;;;;;;;13.90;10.00;;;;;;;6.10;100.00;101042.97;10095080;28;20047;-75
2024/02/04 17:51:50;;;;;;;21.60;10.27;;;;;;;6.08;100.00;101042.44;10100175;28;20162;-76
2024/02/04 17:56:46;;;;;;;15.75;10.70;;;;;;;6.07;100.00;101042.72;10094294;28;20061;-78
2024/02/04 18:01:43;;;;;;;17.25;10.88;;;;;;;6.08;100.00;101044.31;10103542;28;20042;-75
2024/02/04 18:06:40;;;;;;;13.38;10.43;;;;;;;6.07;100.00;101043.50;10090303;28;20195;-76
2024/02/04 18:11:37;;;;;;;12.27;9.88;;;;;;;6.05;100.00;101036.75;10098089;28;20078;-75
2024/02/04 18:16:33;;;;;;;13.85;10.43;;;;;;;6.09;100.00;101026.97;10100564;28;20047;-75
2024/02/04 18:21:30;;;;;;;14.65;11.63;;;;;;;6.10;100.00;101015.81;10098735;28;20047;-75
2024/02/04 18:26:28;;;;;;;10.70;9.63;;;;;;;6.11;100.00;101001.16;10100219;28;20128;-76
2024/02/04 18:31:27;;;;;;;13.32;9.73;;;;;;;6.12;100.00;101007.38;10100888;28;20069;-77
2024/02/04 18:36:26;;;;;;;14.75;10.70;;;;;;;6.11;100.00;100990.28;10093912;28;20051;-76
2024/02/04 18:41:22;;;;;;;15.90;10.45;;;;;;;6.14;100.00;100966.38;10103738;28;20051;-78
2024/02/04 18:46:19;;;;;;;11.13;10.02;;;;;;;6.16;100.00;100973.16;10103875;28;20054;-76
2024/02/04 18:51:15;;;;;;;13.70;9.57;;;;;;;6.16;100.00;100953.34;10106203;28;20051;-77
2024/02/04 18:56:15;;;;;;;10.57;9.55;;;;;;;6.18;100.00;100946.53;10089688;28;20065;-77
2024/02/04 19:01:13;;;;;;;12.20;8.65;;;;;;;6.18;100.00;100938.38;10112136;28;20575;-76
2024/02/04 19:06:11;;;;;;;9.82;8.85;;;;;;;6.22;100.00;100941.34;10107422;28;20059;-77
2024/02/04 19:11:08;;;;;;;13.40;9.80;;;;;;;6.23;100.00;100913.09;10099853;28;20093;-77
2024/02/04 19:16:04;;;;;;;11.23;9.23;;;;;;;6.23;100.00;100910.41;10109108;28;20047;-77
2024/02/04 19:21:02;;;;;;;11.73;9.27;;;;;;;6.22;100.00;100897.88;10105336;28;20054;-76
2024/02/04 19:25:59;;;;;;;13.48;9.48;;;;;;;6.23;100.00;100883.25;10102107;28;20417;-76
2024/02/04 19:30:55;;;;;;;11.57;8.77;;;;;;;6.23;100.00;100872.38;10100912;28;20051;-75
2024/02/04 19:35:51;;;;;;;10.07;9.02;;;;;;;6.22;100.00;100865.31;10092517;28;20134;-76
2024/02/04 19:40:50;;;;;;;10.13;9.07;;;;;;;6.19;100.00;100855.84;10095964;28;20095;-79
2024/02/04 19:45:47;;;;;;;11.95;8.50;;;;;;;6.21;100.00;100848.22;10108852;28;20050;-76
2024/02/04 19:50:43;;;;;;;13.15;8.65;;;;;;;6.22;100.00;100830.00;10106316;28;20582;-76
2024/02/04 19:55:40;;;;;;;12.05;8.55;;;;;;;6.21;100.00;100817.53;10101432;28;20258;-76
2024/02/04 20:00:36;;;;;;;15.15;8.75;;;;;;;6.21;100.00;100809.41;10101531;28;20687;-75
2024/02/04 20:05:33;;;;;;;8.63;7.93;;;;;;;6.21;100.00;100803.97;10106020;28;20054;-76
2024/02/04 20:10:29;;;;;;;12.35;8.23;;;;;;;6.22;100.00;100798.25;10089401;28;20043;-75
2024/02/04 20:15:28;;;;;;;16.75;7.55;;;;;;;6.18;100.00;100789.06;10109979;28;20055;-75
2024/02/04 20:20:25;;;;;;;8.35;7.53;;;;;;;6.15;100.00;100780.66;10095928;28;20134;-77
2024/02/04 20:25:27;;;;;;;8.68;7.18;;;;;;;6.14;100.00;100781.78;10091848;28;20082;-78
2024/02/04 20:30:27;;;;;;;12.80;7.17;;;;;;;6.15;100.00;100767.09;10095892;28;20051;-78
2024/02/04 20:35:26;;;;;;;11.70;7.22;;;;;;;6.13;100.00;100747.56;10101300;28;20058;-78
2024/02/04 20:40:23;;;;;;;6.60;5.72;;;;;;;6.15;100.00;100723.66;10099666;28;20051;-77
2024/02/04 20:45:20;;;;;;;6.65;5.97;;;;;;;6.18;100.00;100717.69;10100002;28;20059;-76
2024/02/04 20:50:16;;;;;;;8.40;5.72;;;;;;;6.17;100.00;100710.59;10087943;28;20062;-78
2024/02/04 20:55:15;;;;;;;12.35;6.07;;;;;;;6.16;100.00;100701.66;10091310;28;20081;-74
2024/02/04 21:00:12;;;;;;;6.68;5.50;;;;;;;6.18;100.00;100668.81;10097451;28;20557;-74
2024/02/04 21:05:09;;;;;;;6.28;5.30;;;;;;;6.25;100.00;100663.84;10116139;28;20145;-73
2024/02/04 21:10:06;;;;;;;6.20;5.53;;;;;;;6.25;100.00;100655.69;10094557;28;20137;-75
2024/02/04 21:15:06;;;;;;;9.88;5.82;;;;;;;6.24;100.00;100632.34;10089363;28;20133;-75
2024/02/04 21:20:06;;;;;;;7.60;6.13;;;;;;;6.28;100.00;100611.66;10095317;28;20097;-75
2024/02/04 21:25:05;;;;;;;;;;;;;;;6.35;100.00;100625.69;10099533;28;20062;-75
2024/02/04 21:30:04;;;;;;;7.25;5.68;;;;;;;6.34;100.00;100613.22;10098247;28;19969;-75
2024/02/04 21:35:02;;;;;;;7.25;6.43;;;;;;;6.44;100.00;100602.19;10102412;28;20051;-74
2024/02/04 21:40:06;;;;;;;6.80;5.88;;;;;;;6.49;100.00;100593.97;10094915;28;20498;-74
2024/02/04 21:45:03;;;;;;;6.57;5.72;;;;;;;6.56;100.00;100588.19;10095473;28;20058;-75
2024/02/04 21:50:01;;;;;;;5.63;5.03;;;;;;;6.65;100.00;100580.19;10106174;28;20058;-76
2024/02/04 21:54:57;;;;;;;5.80;4.45;;;;;;;6.77;100.00;100577.81;10110345;28;20723;-76
2024/02/04 21:59:54;;;;;;;5.55;3.85;;;;;;;6.87;100.00;100572.22;10113578;28;20081;-77
2024/02/04 22:04:54;;;;;;;3.60;2.92;;;;;;;6.94;100.00;100556.34;10112922;28;20053;-76
2024/02/04 22:09:51;;;;;;;4.65;3.30;;;;;;;6.99;100.00;100557.38;10116428;28;20413;-76
2024/02/04 22:14:47;;;;;;;4.57;3.17;;;;;;;7.08;100.00;100539.28;10102004;28;20585;-76
2024/02/04 22:19:45;;;;;;;3.63;2.90;;;;;;;7.12;100.00;100535.63;10097497;28;20038;-77
2024/02/04 22:24:42;;;;;;;3.70;2.30;;;;;;;7.25;100.00;100534.06;10110016;28;20050;-74
2024/02/04 22:29:39;;;;;;;3.13;2.30;;;;;;;7.34;100.00;100526.81;10112994;28;20050;-74